Time;durP1;ratioP1;P1;durP2;ratioP2;P2;SDS_P1;SDS_P2;PMS_P1;PMS_P2;Temp;Humidity;BMP_temperature;BMP_pressure;BME280_temperature;BME280_humidity;BME280_pressure;Samples;Min_cycle;Max_cycle;Signal;HPM_P1;HPM_P2
2023/04/04 00:01:23;;;;;;;;;;;;;;;-145.70;100.00;63560.63;6201507;23;19919;-62
2023/04/04 00:03:50;;;;;;;;;;;;;;;-145.70;100.00;63560.63;6197997;23;19935;-63
2023/04/04 00:06:18;;;;;;;;;;;;;;;-145.70;100.00;63560.63;6197162;23;19912;-61
2023/04/04 00:08:44;;;;;;;;;;;;;;;-145.70;100.00;63560.63;6156275;23;19912;-61
2023/04/04 00:11:09;;;;;;;;;;;;;;;-145.70;100.00;63560.63;6201885;23;20422;-63
2023/04/04 00:13:34;;;;;;;;;;;;;;;-145.70;100.00;63560.63;6175071;23;20240;-62
2023/04/04 00:16:00;;;;;;;;;;;;;;;-145.70;100.00;63560.63;6202050;23;20499;-62
2023/04/04 00:18:25;;;;;;;;;;;;;;;-145.70;100.00;63560.63;6172133;23;19916;-61
2023/04/04 00:20:50;;;;;;;;;;;;;;;-145.70;100.00;63560.63;6157444;23;19958;-62
2023/04/04 00:23:16;;;;;;;;;;;;;;;-145.70;100.00;63560.63;6199260;23;19912;-61
2023/04/04 00:25:42;;;;;;;;;;;;;;;-145.70;100.00;63560.63;6156097;23;20330;-61
2023/04/04 00:28:08;;;;;;;;;;;;;;;-145.70;100.00;63560.63;6201610;23;19907;-62
2023/04/04 00:30:33;;;;;;;;;;;;;;;-145.70;100.00;63560.63;6201658;23;20495;-62
2023/04/04 00:33:00;;;;;;;;;;;;;;;-145.70;100.00;63560.63;6200299;23;19912;-62
2023/04/04 00:35:25;;;;;;;;;;;;;;;-145.70;100.00;63560.63;6172496;23;19908;-61
2023/04/04 00:37:53;;;;;;;;;;;;;;;-145.70;100.00;63560.63;6157989;23;19915;-61
2023/04/04 00:40:18;;;;;;;;;;;;;;;-145.70;100.00;63560.63;6203666;23;19999;-61
2023/04/04 00:42:44;;;;;;;;;;;;;;;-145.70;100.00;63560.63;6197771;23;20071;-62
2023/04/04 00:45:09;;;;;;;;;;;;;;;-145.70;100.00;63560.63;6163515;23;20338;-62
2023/04/04 00:47:34;;;;;;;;;;;;;;;-145.70;100.00;63560.63;6199405;23;20325;-61
2023/04/04 00:50:01;;;;;;;;;;;;;;;-145.70;100.00;63560.63;6176411;23;19955;-62
2023/04/04 00:52:26;;;;;;;;;;;;;;;-145.70;100.00;63560.63;6196741;23;19955;-62
2023/04/04 00:54:51;;;;;;;;;;;;;;;-145.70;100.00;63560.63;6156372;23;20364;-62
2023/04/04 00:57:16;;;;;;;;;;;;;;;-145.70;100.00;63560.63;6200587;23;19912;-61
2023/04/04 00:59:42;;;;;;;;;;;;;;;-145.70;100.00;63560.63;6202266;23;20393;-62
2023/04/04 01:02:07;;;;;;;;;;;;;;;-145.70;100.00;63560.63;6198664;23;19915;-62
2023/04/04 01:04:32;;;;;;;;;;;;;;;-145.70;100.00;63560.63;6202991;23;19938;-61
2023/04/04 01:06:58;;;;;;;;;;;;;;;-145.70;100.00;63560.63;6202634;23;19907;-61
2023/04/04 01:09:23;;;;;;;;;;;;;;;-145.70;100.00;63560.63;6197588;23;19934;-61
2023/04/04 01:11:49;;;;;;;;;;;;;;;-145.70;100.00;63560.63;6155667;23;20364;-61
2023/04/04 01:14:14;;;;;;;;;;;;;;;-145.70;100.00;63560.63;6197398;23;19982;-62
2023/04/04 01:16:42;;;;;;;;;;;;;;;-145.70;100.00;63560.63;6152382;23;19974;-61
2023/04/04 01:19:10;;;;;;;;;;;;;;;-145.70;100.00;63560.63;6202096;23;19923;-62
2023/04/04 01:21:35;;;;;;;;;;;;;;;-145.70;100.00;63560.63;6198524;23;19919;-61
2023/04/04 01:24:02;;;;;;;;;;;;;;;-145.70;100.00;63560.63;6173919;23;19912;-61
2023/04/04 01:26:27;;;;;;;;;;;;;;;-145.70;100.00;63560.63;6206874;23;19919;-61
2023/04/04 01:28:53;;;;;;;;;;;;;;;-145.70;100.00;63560.63;6199302;23;19928;-62
2023/04/04 01:31:20;;;;;;;;;;;;;;;-145.70;100.00;63560.63;6198499;23;19946;-61
2023/04/04 01:33:48;;;;;;;;;;;;;;;-145.70;100.00;63560.63;6200594;23;19942;-61
2023/04/04 01:36:31;;;;;;;;;;;;;;;-145.70;100.00;63560.63;6162504;23;19912;-61
2023/04/04 01:39:26;;;;;;;;;;;;;;;-145.70;100.00;63560.63;6172529;23;19908;-61
2023/04/04 01:41:51;;;;;;;;;;;;;;;-145.70;100.00;63560.63;6185907;23;20276;-61
2023/04/04 01:44:17;;;;;;;;;;;;;;;-145.70;100.00;63560.63;6203254;23;19911;-61
2023/04/04 01:46:43;;;;;;;;;;;;;;;-145.70;100.00;63560.63;6199773;23;19916;-61
2023/04/04 01:49:08;;;;;;;;;;;;;;;-145.70;100.00;63560.63;6162881;23;20234;-62
2023/04/04 01:51:33;;;;;;;;;;;;;;;-145.70;100.00;63560.63;6199343;23;19996;-61
2023/04/04 01:53:59;;;;;;;;;;;;;;;-145.70;100.00;63560.63;6161825;23;20006;-62
2023/04/04 01:56:24;;;;;;;;;;;;;;;-145.70;100.00;63560.63;6197361;23;20659;-61
2023/04/04 01:58:51;;;;;;;;;;;;;;;-145.70;100.00;63560.63;6157726;23;19912;-62
2023/04/04 02:01:16;;;;;;;;;;;;;;;-145.70;100.00;63560.63;6173894;23;19919;-61
2023/04/04 02:03:42;;;;;;;;;;;;;;;-145.70;100.00;63560.63;6188161;23;20218;-61
2023/04/04 02:06:07;;;;;;;;;;;;;;;-145.70;100.00;63560.63;6178371;23;19950;-61
2023/04/04 02:08:37;;;;;;;;;;;;;;;-145.70;100.00;63560.63;6197569;23;19923;-61
2023/04/04 02:11:02;;;;;;;;;;;;;;;-145.70;100.00;63560.63;6163020;23;20010;-62
2023/04/04 02:13:27;;;;;;;;;;;;;;;-145.70;100.00;63560.63;6204959;23;19985;-61
2023/04/04 02:15:53;;;;;;;;;;;;;;;-145.70;100.00;63560.63;6206699;23;19915;-61
2023/04/04 02:18:19;;;;;;;;;;;;;;;-145.70;100.00;63560.63;6204781;23;19991;-61
2023/04/04 02:20:44;;;;;;;;;;;;;;;-145.70;100.00;63560.63;6197373;23;20845;-61
2023/04/04 02:23:09;;;;;;;;;;;;;;;-145.70;100.00;63560.63;6166888;23;19912;-61
2023/04/04 02:25:35;;;;;;;;;;;;;;;-145.70;100.00;63560.63;6173659;23;19943;-61
2023/04/04 02:28:00;;;;;;;;;;;;;;;-145.70;100.00;63560.63;6178080;23;19920;-61
2023/04/04 02:30:25;;;;;;;;;;;;;;;-145.70;100.00;63560.63;6204054;23;19912;-62
2023/04/04 02:32:53;;;;;;;;;;;;;;;-145.70;100.00;63560.63;6204024;23;19998;-60
2023/04/04 02:35:18;;;;;;;;;;;;;;;-145.70;100.00;63560.63;6174445;23;19919;-61
2023/04/04 02:37:45;;;;;;;;;;;;;;;-145.70;100.00;63560.63;6171215;23;19912;-62
2023/04/04 02:40:15;;;;;;;;;;;;;;;-145.70;100.00;63560.63;6178492;23;19911;-62
2023/04/04 02:42:42;;;;;;;;;;;;;;;-145.70;100.00;63560.63;6202376;23;19938;-61
2023/04/04 02:45:13;;;;;;;;;;;;;;;-145.70;100.00;63560.63;6204928;23;19907;-62
2023/04/04 02:47:41;;;;;;;;;;;;;;;-145.70;100.00;63560.63;6203569;23;19911;-60
2023/04/04 02:50:07;;;;;;;;;;;;;;;-145.70;100.00;63560.63;6204674;23;19954;-61
2023/04/04 02:52:33;;;;;;;;;;;;;;;-145.70;100.00;63560.63;6206588;23;19982;-61
2023/04/04 02:54:58;;;;;;;;;;;;;;;-145.70;100.00;63560.63;6205771;23;19908;-61
2023/04/04 02:57:23;;;;;;;;;;;;;;;-145.70;100.00;63560.63;6204904;23;19908;-61
2023/04/04 02:59:51;;;;;;;;;;;;;;;-145.70;100.00;63560.63;6197589;23;19912;-62
2023/04/04 03:02:16;;;;;;;;;;;;;;;-145.70;100.00;63560.63;6203219;23;19919;-62
2023/04/04 03:04:41;;;;;;;;;;;;;;;-145.70;100.00;63560.63;6203673;23;19912;-62
2023/04/04 03:07:07;;;;;;;;;;;;;;;-145.70;100.00;63560.63;6201981;23;20011;-62
2023/04/04 03:09:32;;;;;;;;;;;;;;;-145.70;100.00;63560.63;6199713;23;20242;-62
2023/04/04 03:11:57;;;;;;;;;;;;;;;-145.70;100.00;63560.63;6160568;23;20401;-63
2023/04/04 03:14:25;;;;;;;;;;;;;;;-145.70;100.00;63560.63;6203714;23;19911;-61
2023/04/04 03:16:53;;;;;;;;;;;;;;;-145.70;100.00;63560.63;6204280;23;19998;-61
2023/04/04 03:19:18;;;;;;;;;;;;;;;-145.70;100.00;63560.63;6204571;23;19918;-61
2023/04/04 03:21:44;;;;;;;;;;;;;;;-145.70;100.00;63560.63;6204243;23;20007;-61
2023/04/04 03:24:12;;;;;;;;;;;;;;;-145.70;100.00;63560.63;6199593;23;20006;-61
2023/04/04 03:26:37;;;;;;;;;;;;;;;-145.70;100.00;63560.63;6179470;23;20306;-63
2023/04/04 03:29:03;;;;;;;;;;;;;;;-145.70;100.00;63560.63;6200632;23;19912;-61
2023/04/04 03:31:29;;;;;;;;;;;;;;;-145.70;100.00;63560.63;6199113;23;19982;-62
2023/04/04 03:33:54;;;;;;;;;;;;;;;-145.70;100.00;63560.63;6160676;23;19955;-61
2023/04/04 03:36:20;;;;;;;;;;;;;;;-145.70;100.00;63560.63;6203258;23;19911;-62
2023/04/04 03:38:47;;;;;;;;;;;;;;;-145.70;100.00;63560.63;6174684;23;19987;-62
2023/04/04 03:41:13;;;;;;;;;;;;;;;-145.70;100.00;63560.63;6160506;23;19915;-62
2023/04/04 03:43:43;;;;;;;;;;;;;;;-145.70;100.00;63560.63;6166598;23;20004;-61
2023/04/04 03:46:09;;;;;;;;;;;;;;;-145.70;100.00;63560.63;6205098;23;19915;-62
2023/04/04 03:48:36;;;;;;;;;;;;;;;-145.70;100.00;63560.63;6172754;23;20565;-63
2023/04/04 03:51:04;;;;;;;;;;;;;;;-145.70;100.00;63560.63;6162580;23;19922;-62
2023/04/04 03:53:34;;;;;;;;;;;;;;;-145.70;100.00;63560.63;6201794;23;19987;-62
2023/04/04 03:56:02;;;;;;;;;;;;;;;-145.70;100.00;63560.63;6206308;23;19919;-60
2023/04/04 03:58:27;;;;;;;;;;;;;;;-145.70;100.00;63560.63;6196271;23;19911;-61
2023/04/04 04:00:53;;;;;;;;;;;;;;;-145.70;100.00;63560.63;6175918;23;19944;-62
2023/04/04 04:03:20;;;;;;;;;;;;;;;-145.70;100.00;63560.63;6173084;23;19967;-61
2023/04/04 04:05:45;;;;;;;;;;;;;;;-145.70;100.00;63560.63;6181777;23;20508;-62
2023/04/04 04:08:11;;;;;;;;;;;;;;;-145.70;100.00;63560.63;6198880;23;19967;-62
2023/04/04 04:10:36;;;;;;;;;;;;;;;-145.70;100.00;63560.63;6156965;23;19912;-62
2023/04/04 04:13:01;;;;;;;;;;;;;;;-145.70;100.00;63560.63;6176601;23;20523;-62
2023/04/04 04:15:27;;;;;;;;;;;;;;;-145.70;100.00;63560.63;6171827;23;20297;-63
2023/04/04 04:17:52;;;;;;;;;;;;;;;-145.70;100.00;63560.63;6158196;23;19919;-61
2023/04/04 04:20:17;;;;;;;;;;;;;;;-145.70;100.00;63560.63;6203621;23;19911;-61
2023/04/04 04:22:51;;;;;;;;;;;;;;;-145.70;100.00;63560.63;6202480;23;19916;-61
2023/04/04 04:25:16;;;;;;;;;;;;;;;-145.70;100.00;63560.63;6204254;23;19912;-62
2023/04/04 04:27:42;;;;;;;;;;;;;;;-145.70;100.00;63560.63;6204771;23;20364;-62
2023/04/04 04:30:07;;;;;;;;;;;;;;;-145.70;100.00;63560.63;6204939;23;19911;-60
2023/04/04 04:32:33;;;;;;;;;;;;;;;-145.70;100.00;63560.63;6195570;23;19916;-62
2023/04/04 04:35:01;;;;;;;;;;;;;;;-145.70;100.00;63560.63;6201038;23;19935;-62
2023/04/04 04:37:26;;;;;;;;;;;;;;;-145.70;100.00;63560.63;6200032;23;19912;-62
2023/04/04 04:39:52;;;;;;;;;;;;;;;-145.70;100.00;63560.63;6198759;23;19963;-62
2023/04/04 04:42:17;;;;;;;;;;;;;;;-145.70;100.00;63560.63;6194686;23;19991;-61
2023/04/04 04:44:42;;;;;;;;;;;;;;;-145.70;100.00;63560.63;6171268;23;20039;-62
2023/04/04 04:47:10;;;;;;;;;;;;;;;-145.70;100.00;63560.63;6177918;23;19958;-61
2023/04/04 04:49:36;;;;;;;;;;;;;;;-145.70;100.00;63560.63;6196021;23;19912;-61
2023/04/04 04:52:01;;;;;;;;;;;;;;;-145.70;100.00;63560.63;6162496;23;20362;-62
2023/04/04 04:54:27;;;;;;;;;;;;;;;-145.70;100.00;63560.63;6191887;23;19912;-61
2023/04/04 04:56:52;;;;;;;;;;;;;;;-145.70;100.00;63560.63;6155199;23;19926;-61
2023/04/04 04:59:20;;;;;;;;;;;;;;;-145.70;100.00;63560.63;6202206;23;20223;-61
2023/04/04 05:01:45;;;;;;;;;;;;;;;-145.70;100.00;63560.63;6169869;23;19912;-63
2023/04/04 05:04:12;;;;;;;;;;;;;;;-145.70;100.00;63560.63;6158458;23;20027;-61
2023/04/04 05:06:37;;;;;;;;;;;;;;;-145.70;100.00;63560.63;6194710;23;19963;-62
2023/04/04 05:09:03;;;;;;;;;;;;;;;-145.70;100.00;63560.63;6162547;23;20375;-62
2023/04/04 05:11:28;;;;;;;;;;;;;;;-145.70;100.00;63560.63;6201510;23;19912;-62
2023/04/04 05:13:53;;;;;;;;;;;;;;;-145.70;100.00;63560.63;6202404;23;20313;-62
2023/04/04 05:16:19;;;;;;;;;;;;;;;-145.70;100.00;63560.63;6198394;23;20751;-62
2023/04/04 05:18:46;;;;;;;;;;;;;;;-145.70;100.00;63560.63;6150720;23;19912;-61
2023/04/04 05:21:11;;;;;;;;;;;;;;;-145.70;100.00;63560.63;6192841;23;20348;-62
2023/04/04 05:23:37;;;;;;;;;;;;;;;-145.70;100.00;63560.63;6197158;23;19927;-62
2023/04/04 05:26:05;;;;;;;;;;;;;;;-145.70;100.00;63560.63;6196189;23;19920;-62
2023/04/04 05:28:33;;;;;;;;;;;;;;;-145.70;100.00;63560.63;6198798;23;19916;-62
2023/04/04 05:30:58;;;;;;;;;;;;;;;-145.70;100.00;63560.63;6195403;23;19948;-61
2023/04/04 05:33:24;;;;;;;;;;;;;;;-145.70;100.00;63560.63;6196499;23;20446;-61
2023/04/04 05:35:49;;;;;;;;;;;;;;;-145.70;100.00;63560.63;6195940;23;20404;-63
2023/04/04 05:38:15;;;;;;;;;;;;;;;-145.70;100.00;63560.63;6197250;23;20401;-63
2023/04/04 05:40:40;;;;;;;;;;;;;;;-145.70;100.00;63560.63;6194990;23;19912;-62
2023/04/04 05:43:07;;;;;;;;;;;;;;;-145.70;100.00;63560.63;6157439;23;20540;-62
2023/04/04 05:45:32;;;;;;;;;;;;;;;-145.70;100.00;63560.63;6168793;23;19919;-62
2023/04/04 05:47:57;;;;;;;;;;;;;;;-145.70;100.00;63560.63;6170998;23;19912;-61
2023/04/04 05:50:23;;;;;;;;;;;;;;;-145.70;100.00;63560.63;6168908;23;19916;-63
2023/04/04 05:52:48;;;;;;;;;;;;;;;-145.70;100.00;63560.63;6196859;22;19915;-62
2023/04/04 05:55:13;;;;;;;;;;;;;;;-145.70;100.00;63560.63;6168991;23;20002;-63
2023/04/04 05:57:49;;;;;;;;;;;;;;;-145.70;100.00;63560.63;6152082;23;19968;-62
2023/04/04 06:00:14;;;;;;;;;;;;;;;-145.70;100.00;63560.63;6198666;23;19912;-62
2023/04/04 06:02:40;;;;;;;;;;;;;;;-145.70;100.00;63560.63;6196821;23;19951;-60
2023/04/04 06:05:05;;;;;;;;;;;;;;;-145.70;100.00;63560.63;6199123;23;19919;-61
2023/04/04 06:07:30;;;;;;;;;;;;;;;-145.70;100.00;63560.63;6201176;23;20316;-61
2023/04/04 06:09:57;;;;;;;;;;;;;;;-145.70;100.00;63560.63;6196933;23;19927;-62
2023/04/04 06:12:22;;;;;;;;;;;;;;;-145.70;100.00;63560.63;6201135;23;19912;-62
2023/04/04 06:14:48;;;;;;;;;;;;;;;-145.70;100.00;63560.63;6202283;23;19962;-62
2023/04/04 06:17:13;;;;;;;;;;;;;;;-145.70;100.00;63560.63;6199984;23;19915;-62
2023/04/04 06:19:38;;;;;;;;;;;;;;;-145.70;100.00;63560.63;6197280;23;19912;-60
2023/04/04 06:22:03;;;;;;;;;;;;;;;-145.70;100.00;63560.63;6161458;23;19959;-60
2023/04/04 06:24:31;;;;;;;;;;;;;;;-145.70;100.00;63560.63;6199807;23;20549;-63
2023/04/04 06:26:56;;;;;;;;;;;;;;;-145.70;100.00;63560.63;6160269;22;19950;-62
2023/04/04 06:29:23;;;;;;;;;;;;;;;-145.70;100.00;63560.63;6198568;23;20708;-62
2023/04/04 06:31:48;;;;;;;;;;;;;;;-145.70;100.00;63560.63;6200259;23;20352;-62
2023/04/04 06:34:13;;;;;;;;;;;;;;;-145.70;100.00;63560.63;6188409;23;19912;-62
2023/04/04 06:36:44;;;;;;;;;;;;;;;-145.70;100.00;63560.63;6151422;23;19908;-61
2023/04/04 06:39:09;;;;;;;;;;;;;;;-145.70;100.00;63560.63;6201640;23;19911;-61
2023/04/04 06:41:35;;;;;;;;;;;;;;;-145.70;100.00;63560.63;6174777;23;19935;-61
2023/04/04 06:44:03;;;;;;;;;;;;;;;-145.70;100.00;63560.63;6198193;22;19916;-61
2023/04/04 06:46:32;;;;;;;;;;;;;;;-145.70;100.00;63560.63;6197717;23;19915;-62
2023/04/04 06:48:57;;;;;;;;;;;;;;;-145.70;100.00;63560.63;6200807;23;19915;-62
2023/04/04 06:51:26;;;;;;;;;;;;;;;-145.70;100.00;63560.63;6203783;23;19999;-61
2023/04/04 06:53:56;;;;;;;;;;;;;;;-145.70;100.00;63560.63;6205079;23;19927;-63
2023/04/04 06:56:21;;;;;;;;;;;;;;;-145.70;100.00;63560.63;6204223;23;19962;-61
2023/04/04 06:58:49;;;;;;;;;;;;;;;-145.70;100.00;63560.63;6202998;23;19908;-62
2023/04/04 07:01:15;;;;;;;;;;;;;;;-145.70;100.00;63560.63;6203460;23;19916;-62
2023/04/04 07:03:40;;;;;;;;;;;;;;;-145.70;100.00;63560.63;6198336;23;19991;-61
2023/04/04 07:06:05;;;;;;;;;;;;;;;-145.70;100.00;63560.63;6163975;23;20015;-62
2023/04/04 07:08:32;;;;;;;;;;;;;;;-145.70;100.00;63560.63;6198560;23;19987;-60
2023/04/04 07:10:57;;;;;;;;;;;;;;;-145.70;100.00;63560.63;6202156;23;19912;-61
2023/04/04 07:13:25;;;;;;;;;;;;;;;-145.70;100.00;63560.63;6204054;23;19915;-62
2023/04/04 07:15:50;;;;;;;;;;;;;;;-145.70;100.00;63560.63;6196544;23;20371;-62
2023/04/04 07:18:16;;;;;;;;;;;;;;;-145.70;100.00;63560.63;6198198;23;19912;-61
2023/04/04 07:20:42;;;;;;;;;;;;;;;-145.70;100.00;63560.63;6197498;23;19918;-62
2023/04/04 07:23:10;;;;;;;;;;;;;;;-145.70;100.00;63560.63;6205029;23;19912;-62
2023/04/04 07:25:40;;;;;;;;;;;;;;;-145.70;100.00;63560.63;6201801;23;19998;-61
2023/04/04 07:28:07;;;;;;;;;;;;;;;-145.70;100.00;63560.63;6203169;23;19918;-61
2023/04/04 07:30:33;;;;;;;;;;;;;;;-145.70;100.00;63560.63;6203858;23;19911;-62
2023/04/04 07:32:58;;;;;;;;;;;;;;;-145.70;100.00;63560.63;6199727;23;19912;-62
2023/04/04 07:35:24;;;;;;;;;;;;;;;-145.70;100.00;63560.63;6203584;23;20016;-62
2023/04/04 07:37:49;;;;;;;;;;;;;;;-145.70;100.00;63560.63;6199889;23;19934;-62
2023/04/04 07:40:15;;;;;;;;;;;;;;;-145.70;100.00;63560.63;6203324;23;19983;-61
2023/04/04 07:42:49;;;;;;;;;;;;;;;-145.70;100.00;63560.63;6198529;23;20245;-61
2023/04/04 07:45:15;;;;;;;;;;;;;;;-145.70;100.00;63560.63;6154961;23;20365;-62
2023/04/04 07:47:44;;;;;;;;;;;;;;;-145.70;100.00;63560.63;6197881;23;19919;-61
2023/04/04 07:50:09;;;;;;;;;;;;;;;-145.70;100.00;63560.63;6178584;23;19961;-61
2023/04/04 07:52:34;;;;;;;;;;;;;;;-145.70;100.00;63560.63;6201590;23;19986;-61
2023/04/04 07:55:02;;;;;;;;;;;;;;;-145.70;100.00;63560.63;6178019;23;19923;-60
2023/04/04 07:57:28;;;;;;;;;;;;;;;-145.70;100.00;63560.63;6203281;23;20241;-61
2023/04/04 07:59:55;;;;;;;;;;;;;;;-145.70;100.00;63560.63;6200954;23;19916;-61
2023/04/04 08:02:21;;;;;;;;;;;;;;;-145.70;100.00;63560.63;6197118;23;19943;-63
2023/04/04 08:04:46;;;;;;;;;;;;;;;-145.70;100.00;63560.63;6200735;23;20003;-60
2023/04/04 08:07:12;;;;;;;;;;;;;;;-145.70;100.00;63560.63;6203270;23;19908;-61
2023/04/04 08:09:37;;;;;;;;;;;;;;;-145.70;100.00;63560.63;6203292;23;19908;-60
2023/04/04 08:12:06;;;;;;;;;;;;;;;-145.70;100.00;63560.63;6202912;23;19927;-60
2023/04/04 08:14:32;;;;;;;;;;;;;;;-145.70;100.00;63560.63;6202201;23;20396;-61
2023/04/04 08:16:57;;;;;;;;;;;;;;;-145.70;100.00;63560.63;6202802;23;19908;-61
2023/04/04 08:19:22;;;;;;;;;;;;;;;-145.70;100.00;63560.63;6172854;23;19994;-60
2023/04/04 08:21:50;;;;;;;;;;;;;;;-145.70;100.00;63560.63;6157411;23;19916;-60
2023/04/04 08:24:15;;;;;;;;;;;;;;;-145.70;100.00;63560.63;6203492;23;19918;-61
2023/04/04 08:26:43;;;;;;;;;;;;;;;-145.70;100.00;63560.63;6197451;23;20408;-60
2023/04/04 08:29:09;;;;;;;;;;;;;;;-145.70;100.00;63560.63;6204673;23;19918;-62
2023/04/04 08:31:34;;;;;;;;;;;;;;;-145.70;100.00;63560.63;6172283;23;19922;-60
2023/04/04 08:34:01;;;;;;;;;;;;;;;-145.70;100.00;63560.63;6161397;23;19920;-61
2023/04/04 08:36:26;;;;;;;;;;;;;;;-145.70;100.00;63560.63;6203136;23;19939;-61
2023/04/04 08:38:52;;;;;;;;;;;;;;;-145.70;100.00;63560.63;6202312;23;19918;-61
2023/04/04 08:41:18;;;;;;;;;;;;;;;-145.70;100.00;63560.63;6197566;23;19985;-62
2023/04/04 08:43:47;;;;;;;;;;;;;;;-145.70;100.00;63560.63;6153426;23;19923;-61
2023/04/04 08:46:13;;;;;;;;;;;;;;;-145.70;100.00;63560.63;6192267;23;20313;-60
2023/04/04 08:48:39;;;;;;;;;;;;;;;-145.70;100.00;63560.63;6201384;23;20037;-59
2023/04/04 08:51:09;;;;;;;;;;;;;;;-145.70;100.00;63560.63;6202602;23;19939;-61
2023/04/04 08:53:34;;;;;;;;;;;;;;;-145.70;100.00;63560.63;6196895;23;19915;-62
2023/04/04 08:56:00;;;;;;;;;;;;;;;-145.70;100.00;63560.63;6174307;23;19912;-61
2023/04/04 08:58:26;;;;;;;;;;;;;;;-145.70;100.00;63560.63;6201983;23;19911;-60
2023/04/04 09:00:52;;;;;;;;;;;;;;;-145.70;100.00;63560.63;6202882;23;19918;-61
2023/04/04 09:03:20;;;;;;;;;;;;;;;-145.70;100.00;63560.63;6205084;23;20011;-61
2023/04/04 09:05:48;;;;;;;;;;;;;;;-145.70;100.00;63560.63;6205145;23;20631;-60
2023/04/04 09:08:15;;;;;;;;;;;;;;;-145.70;100.00;63560.63;6205138;23;19915;-61
2023/04/04 09:10:42;;;;;;;;;;;;;;;-145.70;100.00;63560.63;6202378;23;20321;-60
2023/04/04 09:13:08;;;;;;;;;;;;;;;-145.70;100.00;63560.63;6176419;23;19951;-60
2023/04/04 09:15:33;;;;;;;;;;;;;;;-145.70;100.00;63560.63;6197969;23;19915;-60
2023/04/04 09:17:59;;;;;;;;;;;;;;;-145.70;100.00;63560.63;6160374;23;20631;-61
2023/04/04 09:20:33;;;;;;;;;;;;;;;-145.70;100.00;63560.63;6173626;23;19912;-61
2023/04/04 09:23:01;;;;;;;;;;;;;;;-145.70;100.00;63560.63;6200046;23;20309;-61
2023/04/04 09:25:26;;;;;;;;;;;;;;;-145.70;100.00;63560.63;6199865;23;19918;-60
2023/04/04 09:27:52;;;;;;;;;;;;;;;-145.70;100.00;63560.63;6198645;23;20214;-60
2023/04/04 09:30:17;;;;;;;;;;;;;;;-145.70;100.00;63560.63;6171226;23;19912;-62
2023/04/04 09:32:42;;;;;;;;;;;;;;;-145.70;100.00;63560.63;6154411;23;19916;-61
2023/04/04 09:35:09;;;;;;;;;;;;;;;-145.70;100.00;63560.63;6200613;23;19991;-61
2023/04/04 09:37:37;;;;;;;;;;;;;;;-145.70;100.00;63560.63;6201363;23;19995;-61
2023/04/04 09:40:05;;;;;;;;;;;;;;;-145.70;100.00;63560.63;6174777;23;19912;-60
2023/04/04 09:42:31;;;;;;;;;;;;;;;-145.70;100.00;63560.63;6200795;23;19911;-62
2023/04/04 09:44:56;;;;;;;;;;;;;;;-145.70;100.00;63560.63;6199726;23;20015;-62
2023/04/04 09:47:23;;;;;;;;;;;;;;;-145.70;100.00;63560.63;6199447;23;19990;-61
2023/04/04 09:49:48;;;;;;;;;;;;;;;-145.70;100.00;63560.63;6205010;23;20058;-60
2023/04/04 09:52:20;;;;;;;;;;;;;;;-145.70;100.00;63560.63;6199071;23;20434;-62
2023/04/04 09:55:07;;;;;;;;;;;;;;;-145.70;100.00;63560.63;6175297;23;19982;-62
2023/04/04 09:57:36;;;;;;;;;;;;;;;-145.70;100.00;63560.63;6197649;23;19912;-61
2023/04/04 10:00:08;;;;;;;;;;;;;;;-145.70;100.00;63560.63;6203934;23;20403;-60
2023/04/04 10:02:38;;;;;;;;;;;;;;;-145.70;100.00;63560.63;6204473;23;20212;-61
2023/04/04 10:05:06;;;;;;;;;;;;;;;-145.70;100.00;63560.63;6202055;23;19951;-62
2023/04/04 10:07:34;;;;;;;;;;;;;;;-145.70;100.00;63560.63;6204211;23;19911;-60
2023/04/04 10:10:06;;;;;;;;;;;;;;;-145.70;100.00;63560.63;6201870;23;19912;-61
2023/04/04 10:12:32;;;;;;;;;;;;;;;-145.70;100.00;63560.63;6191695;23;19916;-65
2023/04/04 10:15:01;;;;;;;;;;;;;;;-145.70;100.00;63560.63;6172581;23;19912;-63
2023/04/04 10:17:30;;;;;;;;;;;;;;;-145.70;100.00;63560.63;6192248;23;19912;-64
2023/04/04 10:19:56;;;;;;;;;;;;;;;-145.70;100.00;63560.63;6169238;23;19912;-64
2023/04/04 10:22:22;;;;;;;;;;;;;;;-145.70;100.00;63560.63;6190378;23;19919;-64
2023/04/04 10:24:47;;;;;;;;;;;;;;;-145.70;100.00;63560.63;6189269;23;20305;-63
2023/04/04 10:27:13;;;;;;;;;;;;;;;-145.70;100.00;63560.63;6189094;23;19923;-65
2023/04/04 10:29:38;;;;;;;;;;;;;;;-145.70;100.00;63560.63;6145835;23;20048;-65
2023/04/04 10:32:06;;;;;;;;;;;;;;;-145.70;100.00;63560.63;6194658;23;20007;-65
2023/04/04 10:34:35;;;;;;;;;;;;;;;-145.70;100.00;63560.63;6190669;23;19915;-65
2023/04/04 10:37:05;;;;;;;;;;;;;;;-145.70;100.00;63560.63;6194170;23;20376;-65
2023/04/04 10:39:31;;;;;;;;;;;;;;;-145.70;100.00;63560.63;6190492;23;19930;-64
2023/04/04 10:41:57;;;;;;;;;;;;;;;-145.70;100.00;63560.63;6165733;23;19908;-65
2023/04/04 10:44:32;;;;;;;;;;;;;;;-145.70;100.00;63560.63;6195070;23;20715;-65
2023/04/04 10:46:58;;;;;;;;;;;;;;;-145.70;100.00;63560.63;6195410;23;19959;-65
2023/04/04 10:49:24;;;;;;;;;;;;;;;-145.70;100.00;63560.63;6190969;23;19943;-64
2023/04/04 10:51:50;;;;;;;;;;;;;;;-145.70;100.00;63560.63;6191063;23;20037;-64
2023/04/04 10:54:15;;;;;;;;;;;;;;;-145.70;100.00;63560.63;6190275;23;19912;-65
2023/04/04 10:56:41;;;;;;;;;;;;;;;-145.70;100.00;63560.63;6165072;23;19919;-65
2023/04/04 10:59:13;;;;;;;;;;;;;;;-145.70;100.00;63560.63;6168295;23;19922;-65
2023/04/04 11:01:48;;;;;;;;;;;;;;;-145.70;100.00;63560.63;6196222;23;20524;-65
2023/04/04 11:04:17;;;;;;;;;;;;;;;-145.70;100.00;63560.63;6189441;23;20464;-65
2023/04/04 11:07:01;;;;;;;;;;;;;;;-145.70;100.00;63560.63;6192409;23;19907;-65
2023/04/04 11:09:45;;;;;;;;;;;;;;;-145.70;100.00;63560.63;6191271;23;19907;-64
2023/04/04 11:12:18;;;;;;;;;;;;;;;-145.70;100.00;63560.63;6188979;23;20242;-65
2023/04/04 11:14:59;;;;;;;;;;;;;;;-145.70;100.00;63560.63;6186681;23;19920;-65
2023/04/04 11:17:56;;;;;;;;;;;;;;;-145.70;100.00;63560.63;6150645;23;20111;-65
2023/04/04 11:20:28;;;;;;;;;;;;;;;-145.70;100.00;63560.63;6178511;23;19912;-65
2023/04/04 11:23:14;;;;;;;;;;;;;;;-145.70;100.00;63560.63;6188081;23;19912;-65
2023/04/04 11:25:49;;;;;;;;;;;;;;;-145.70;100.00;63560.63;6190325;23;19912;-66
2023/04/04 11:28:24;;;;;;;;;;;;;;;-145.70;100.00;63560.63;6185510;23;19912;-65
2023/04/04 11:31:09;;;;;;;;;;;;;;;-145.70;100.00;63560.63;6187375;23;19944;-64
2023/04/04 11:33:37;;;;;;;;;;;;;;;-145.70;100.00;63560.63;6165814;23;20054;-65
2023/04/04 11:36:05;;;;;;;;;;;;;;;-145.70;100.00;63560.63;6191397;23;19912;-64
2023/04/04 11:38:30;;;;;;;;;;;;;;;-145.70;100.00;63560.63;6192340;23;19912;-61
2023/04/04 11:40:56;;;;;;;;;;;;;;;-145.70;100.00;63560.63;6169124;23;19959;-60
2023/04/04 11:43:23;;;;;;;;;;;;;;;-145.70;100.00;63560.63;6167949;23;19942;-61
2023/04/04 11:45:51;;;;;;;;;;;;;;;-145.70;100.00;63560.63;6150747;23;19912;-61
2023/04/04 11:48:19;;;;;;;;;;;;;;;-145.70;100.00;63560.63;6199128;23;20341;-61
2023/04/04 11:50:46;;;;;;;;;;;;;;;-145.70;100.00;63560.63;6199994;23;20280;-61
2023/04/04 11:53:11;;;;;;;;;;;;;;;-145.70;100.00;63560.63;6190800;23;19998;-61
2023/04/04 11:55:42;;;;;;;;;;;;;;;-145.70;100.00;63560.63;6162203;23;19940;-61
2023/04/04 11:58:09;;;;;;;;;;;;;;;-145.70;100.00;63560.63;6195498;23;19908;-61
2023/04/04 12:00:36;;;;;;;;;;;;;;;-145.70;100.00;63560.63;6194603;23;19916;-61
2023/04/04 12:03:03;;;;;;;;;;;;;;;-145.70;100.00;63560.63;6171809;23;19936;-63
2023/04/04 12:05:31;;;;;;;;;;;;;;;-145.70;100.00;63560.63;6202632;23;19963;-60
2023/04/04 12:07:56;;;;;;;;;;;;;;;-145.70;100.00;63560.63;6199065;23;19912;-61
2023/04/04 12:10:22;;;;;;;;;;;;;;;-145.70;100.00;63560.63;6200796;23;19908;-60
2023/04/04 12:12:50;;;;;;;;;;;;;;;-145.70;100.00;63560.63;6203230;23;19930;-60
2023/04/04 12:15:16;;;;;;;;;;;;;;;-145.70;100.00;63560.63;6201851;23;19918;-61
2023/04/04 12:17:44;;;;;;;;;;;;;;;-145.70;100.00;63560.63;6195597;23;19998;-61